This is the latest recevied weather packets stored in our database for station/object DC1NF-7. If no packets are shown the sender has not sent any weather packets the latest 1 day(s).
| Time | Temp. | Humidity | Pressure | Rain* | Wind** | Luminosity | Snow |
|---|---|---|---|---|---|---|---|
| 1777965330 | 17.78° C | 68% | 1009.6 hPa | 0 mm | 0.89 m/s, 234° | 491 W/m² | - |
| 1777964726 | 17.22° C | 69% | 1009.5 hPa | 0 mm | 0.89 m/s, 248° | 443 W/m² | - |
| 1777964131 | 16.67° C | 73% | 1009.5 hPa | 0 mm | 0.89 m/s, 218° | 468 W/m² | - |
| 1777963520 | 16.67° C | 74% | 1009.5 hPa | 0 mm | 0.89 m/s, 244° | 216 W/m² | - |
| 1777962919 | 16.11° C | 75% | 1009.5 hPa | 0 mm | 0.45 m/s, 222° | 294 W/m² | - |
| 1777962372 | 15.56° C | 76% | 1009.7 hPa | 0 mm | 0.89 m/s, 241° | 193 W/m² | - |
| 1777961768 | 15.56° C | 78% | 1009.6 hPa | 0 mm | 0 m/s | 141 W/m² | - |
| 1777961164 | 15.56° C | 79% | 1009.6 hPa | 0 mm | 0.45 m/s, 190° | 101 W/m² | - |
| 1777960559 | 15.56° C | 79% | 1009.6 hPa | 0 mm | 0.45 m/s, 248° | 103 W/m² | - |
| 1777959958 | 15° C | 78% | 1009.6 hPa | 0 mm | 0.45 m/s, 245° | 123 W/m² | - |
| 1777959352 | 15° C | 78% | 1009.6 hPa | 0 mm | 0.89 m/s, 251° | 97 W/m² | - |
| 1777958752 | 15° C | 78% | 1009.5 hPa | 0 mm | 0.45 m/s, 242° | 80 W/m² | - |
| 1777958149 | 15° C | 78% | 1009.4 hPa | 0 mm | 0.45 m/s, 233° | 96 W/m² | - |
| 1777957544 | 15° C | 78% | 1009.5 hPa | 0 mm | 0.89 m/s, 225° | 74 W/m² | - |
| 1777956937 | 15.56° C | 76% | 1009.5 hPa | 0 mm | 0.45 m/s, 180° | 62 W/m² | - |
| 1777955126 | 14.44° C | 79% | 1009.5 hPa | 0 mm | 0 m/s | 35 W/m² | - |
| 1777949155 | 15.56° C | 72% | 1010.1 hPa | 0 mm | 0 m/s | 0 W/m² | - |
| 1777948548 | 15.56° C | 72% | 1010.3 hPa | 0 mm | 0.45 m/s, 208° | 0 W/m² | - |
| 1777947947 | 16.11° C | 71% | 1010.3 hPa | 0 mm | 0.45 m/s, 145° | 0 W/m² | - |
| 1777947344 | 16.11° C | 70% | 1010.3 hPa | 0 mm | 1.34 m/s, 97° | 0 W/m² | - |
| 1777946735 | 16.11° C | 71% | 1010.5 hPa | 0 mm | 1.79 m/s, 84° | 0 W/m² | - |
| 1777946132 | 16.11° C | 71% | 1010.6 hPa | 0 mm | 0.89 m/s, 69° | 0 W/m² | - |
| 1777945530 | 16.11° C | 70% | 1010.5 hPa | 0 mm | 0.89 m/s, 73° | 0 W/m² | - |
| 1777944927 | 16.11° C | 70% | 1010.4 hPa | 0 mm | 2.24 m/s, 72° | 0 W/m² | - |
| 1777944323 | 15.56° C | 72% | 1010.6 hPa | 0 mm | 2.24 m/s, 69° | 0 W/m² | - |
* Rain latest hour (hover to see other rain measurements)
** Current wind speed in m/s (hover to see current wind gust speed)